Time;durP1;ratioP1;P1;durP2;ratioP2;P2;SDS_P1;SDS_P2;PMS_P1;PMS_P2;Temp;Humidity;BMP_temperature;BMP_pressure;BME280_temperature;BME280_humidity;BME280_pressure;Samples;Min_cycle;Max_cycle;Signal;HPM_P1;HPM_P2
2022/09/29 00:01:32;;;;;;;5.63;4.00;;;;;;;8.64;100.00;97566.72;4998958;28;20249;-82
2022/09/29 00:04:02;;;;;;;5.17;4.00;;;;;;;8.80;100.00;97568.94;4994845;28;20199;-82
2022/09/29 00:06:31;;;;;;;4.20;3.50;;;;;;;8.86;100.00;97561.31;4999232;28;20223;-82
2022/09/29 00:08:59;;;;;;;3.50;3.20;;;;;;;8.83;100.00;97568.69;5005657;28;20264;-82
2022/09/29 00:11:27;;;;;;;5.27;3.40;;;;;;;8.75;100.00;97561.38;5006969;28;20202;-83
2022/09/29 00:13:55;;;;;;;4.83;3.50;;;;;;;8.53;100.00;97569.38;5003127;28;20191;-82
2022/09/29 00:16:24;;;;;;;5.60;3.57;;;;;;;8.51;100.00;97580.06;5002301;28;20287;-82
2022/09/29 00:18:56;;;;;;;6.43;3.67;;;;;;;8.31;100.00;97565.81;5004817;28;20190;-82
2022/09/29 00:21:26;;;;;;;4.83;3.67;;;;;;;8.40;100.00;97576.63;5011189;28;20662;-82
2022/09/29 00:23:54;;;;;;;5.47;3.63;;;;;;;8.35;100.00;97570.88;5005609;28;20260;-83
2022/09/29 00:26:24;;;;;;;5.13;4.13;;;;;;;8.39;100.00;97573.13;5000395;28;20230;-82
2022/09/29 00:28:57;;;;;;;4.60;4.17;;;;;;;8.43;100.00;97574.56;5032628;28;20191;-82
2022/09/29 00:31:30;;;;;;;7.57;4.60;;;;;;;8.45;100.00;97572.63;5001073;28;20225;-82
2022/09/29 00:34:01;;;;;;;5.80;4.80;;;;;;;8.36;100.00;97576.00;5000598;28;20285;-82
2022/09/29 00:36:30;;;;;;;7.97;4.73;;;;;;;8.43;100.00;97582.47;5004971;28;20199;-82
2022/09/29 00:38:59;;;;;;;5.37;4.20;;;;;;;8.42;100.00;97577.34;4997115;28;20256;-82
2022/09/29 00:41:32;;;;;;;5.83;4.50;;;;;;;8.36;100.00;97583.09;5001478;28;20199;-83
2022/09/29 00:44:03;;;;;;;5.23;4.03;;;;;;;8.30;100.00;97579.13;5001083;28;20191;-82
2022/09/29 00:46:45;;;;;;;5.53;4.07;;;;;;;8.25;100.00;97582.13;5000672;28;20195;-83
2022/09/29 00:49:20;;;;;;;5.70;4.50;;;;;;;8.22;100.00;97576.28;4996967;28;20649;-82
2022/09/29 00:51:55;;;;;;;6.53;4.00;;;;;;;8.22;100.00;97566.56;4996887;28;20223;-82
2022/09/29 00:54:28;;;;;;;5.30;4.50;;;;;;;8.27;100.00;97580.19;4999294;28;20190;-82
2022/09/29 00:56:58;;;;;;;6.80;4.67;;;;;;;8.26;100.00;97562.69;5000641;28;20243;-83
2022/09/29 00:59:37;;;;;;;6.60;4.80;;;;;;;8.25;100.00;97568.09;5034585;28;20203;-82
2022/09/29 01:02:06;;;;;;;5.57;4.13;;;;;;;8.14;100.00;97568.97;4989462;28;20244;-82
2022/09/29 01:04:36;;;;;;;7.40;5.40;;;;;;;8.18;100.00;97569.53;4998134;28;20210;-82
2022/09/29 01:07:10;;;;;;;5.90;4.40;;;;;;;8.04;100.00;97568.00;4998835;28;20199;-83
2022/09/29 01:09:41;;;;;;;6.67;4.03;;;;;;;7.89;100.00;97567.41;4991235;28;20252;-82
2022/09/29 01:12:12;;;;;;;5.17;4.40;;;;;;;7.74;100.00;97566.84;4996939;28;20226;-82
2022/09/29 01:14:41;;;;;;;9.43;4.13;;;;;;;7.78;100.00;97564.78;4997311;28;20195;-82
2022/09/29 01:17:10;;;;;;;5.50;4.30;;;;;;;7.86;100.00;97558.91;5019634;28;20321;-82
2022/09/29 01:19:51;;;;;;;5.30;4.20;;;;;;;7.96;100.00;97573.88;4998903;28;20199;-83
2022/09/29 01:22:40;;;;;;;7.63;4.67;;;;;;;7.89;100.00;97567.41;5008113;28;20191;-82
2022/09/29 01:25:30;;;;;;;7.57;4.63;;;;;;;8.07;100.00;97561.66;5032678;28;20195;-82
2022/09/29 01:28:21;;;;;;;6.37;4.40;;;;;;;7.97;100.00;97564.19;5001553;28;20195;-82
2022/09/29 01:31:07;;;;;;;5.63;4.43;;;;;;;7.33;100.00;97577.06;4994516;28;20206;-83
2022/09/29 01:33:43;;;;;;;6.93;4.57;;;;;;;7.34;100.00;97574.34;4995227;28;20195;-82
2022/09/29 01:36:24;;;;;;;5.77;4.23;;;;;;;7.40;100.00;97575.66;5001639;28;20195;-82
2022/09/29 01:39:06;;;;;;;6.10;4.80;;;;;;;7.38;100.00;97572.31;4997942;28;20226;-83
2022/09/29 01:41:42;;;;;;;4.77;4.30;;;;;;;7.36;100.00;97584.75;4998983;28;20233;-82
2022/09/29 01:44:18;;;;;;;4.83;3.90;;;;;;;7.23;100.00;97589.25;4998126;28;20256;-83
2022/09/29 01:46:55;;;;;;;8.47;4.40;;;;;;;7.14;100.00;97581.13;4999632;28;20196;-82
2022/09/29 01:49:29;;;;;;;5.73;5.00;;;;;;;7.12;100.00;97590.91;5006679;28;20195;-82
2022/09/29 01:52:02;;;;;;;6.83;4.93;;;;;;;7.16;100.00;97595.00;5000108;28;20673;-82
2022/09/29 01:54:38;;;;;;;17.50;5.77;;;;;;;7.21;100.00;97596.44;4999329;28;20237;-82
2022/09/29 01:57:09;;;;;;;8.00;4.87;;;;;;;7.12;100.00;97592.72;4993802;28;20194;-82
2022/09/29 01:59:44;;;;;;;6.80;5.53;;;;;;;7.14;100.00;97596.94;5001905;28;20203;-82
2022/09/29 02:02:21;;;;;;;6.53;5.23;;;;;;;7.17;100.00;97603.75;5004309;28;20309;-82
2022/09/29 02:04:55;;;;;;;7.20;4.70;;;;;;;7.18;100.00;97605.41;4996272;28;20207;-82
2022/09/29 02:07:29;;;;;;;6.30;4.87;;;;;;;7.08;100.00;97602.63;5042541;28;20237;-83
2022/09/29 02:10:03;;;;;;;5.00;4.50;;;;;;;7.04;100.00;97600.34;5001040;28;20241;-82
2022/09/29 02:12:40;;;;;;;7.17;5.13;;;;;;;7.05;100.00;97602.03;5005365;28;20241;-83
2022/09/29 02:15:13;;;;;;;4.93;4.43;;;;;;;7.02;100.00;97591.72;5002748;28;20210;-82
2022/09/29 02:17:48;;;;;;;8.73;4.53;;;;;;;6.83;100.00;97593.09;4993729;28;20218;-82
2022/09/29 02:20:17;;;;;;;6.00;4.40;;;;;;;6.88;100.00;97590.97;5028637;28;20193;-83
2022/09/29 02:22:49;;;;;;;5.80;3.57;;;;;;;6.83;100.00;97593.09;5026318;28;20205;-82
2022/09/29 02:25:19;;;;;;;3.53;3.23;;;;;;;7.00;100.00;97598.91;5032376;28;20194;-82
2022/09/29 02:27:49;;;;;;;4.87;3.77;;;;;;;6.91;100.00;97597.78;5032526;28;20252;-82
2022/09/29 02:30:21;;;;;;;5.60;3.70;;;;;;;6.91;100.00;97600.41;5025586;28;20260;-82
2022/09/29 02:32:52;;;;;;;3.80;3.50;;;;;;;6.79;100.00;97601.34;5028136;28;20251;-82
2022/09/29 02:35:21;;;;;;;4.67;3.63;;;;;;;6.79;100.00;97603.97;5022729;28;20218;-82
2022/09/29 02:38:02;;;;;;;4.47;4.03;;;;;;;6.97;100.00;97604.41;5014257;28;20730;-83
2022/09/29 02:40:42;;;;;;;5.87;4.10;;;;;;;6.91;100.00;97602.22;4949321;29;20331;-82
2022/09/29 02:43:44;;;;;;;4.10;3.70;;;;;;;6.81;100.00;97602.06;4951974;28;20200;-82
2022/09/29 02:46:29;;;;;;;5.47;4.00;;;;;;;6.72;100.00;97606.19;4948686;28;20209;-82
2022/09/29 02:49:12;;;;;;;4.50;4.00;;;;;;;6.75;100.00;97613.84;4946779;28;20196;-82
2022/09/29 02:51:45;;;;;;;4.73;4.23;;;;;;;6.82;100.00;97607.19;4952901;28;20212;-82
2022/09/29 02:54:37;;;;;;;10.93;4.17;;;;;;;6.85;100.00;97608.75;4968664;28;20270;-82
2022/09/29 02:57:18;;;;;;;57.17;7.17;;;;;;;6.48;100.00;97608.84;4969034;28;20272;-82
2022/09/29 03:00:07;;;;;;;36.70;5.80;;;;;;;6.61;100.00;97621.94;5005107;28;20246;-82
2022/09/29 03:02:37;;;;;;;81.77;8.50;;;;;;;6.47;100.00;97625.56;5009311;28;20210;-82
2022/09/29 03:05:10;;;;;;;45.40;6.97;;;;;;;6.44;100.00;97623.13;4997143;28;20201;-82
2022/09/29 03:07:39;;;;;;;44.67;8.10;;;;;;;6.46;100.00;97629.13;5005186;28;20361;-83
2022/09/29 03:10:10;;;;;;;26.90;6.30;;;;;;;6.45;100.00;97632.72;5005061;28;20225;-83
2022/09/29 03:12:38;;;;;;;27.50;7.23;;;;;;;6.48;100.00;97634.31;4998049;28;20203;-82
2022/09/29 03:15:11;;;;;;;9.77;6.37;;;;;;;6.51;100.00;97629.66;4997966;28;20194;-82
2022/09/29 03:17:43;;;;;;;18.70;6.07;;;;;;;6.64;100.00;97628.75;5001378;28;20234;-83
2022/09/29 03:20:13;;;;;;;72.63;7.93;;;;;;;6.58;100.00;97623.00;5000530;28;20199;-83
2022/09/29 03:22:42;;;;;;;18.03;5.73;;;;;;;6.61;100.00;97624.56;5052700;28;20295;-81
2022/09/29 03:25:13;;;;;;;33.17;5.93;;;;;;;6.58;100.00;97627.41;5042027;28;20197;-82
2022/09/29 03:27:42;;;;;;;15.57;5.47;;;;;;;6.64;100.00;97623.50;5046846;28;20205;-83
2022/09/29 03:30:13;;;;;;;26.37;7.47;;;;;;;6.52;100.00;97626.06;5052659;28;20197;-83
2022/09/29 03:32:43;;;;;;;14.80;7.67;;;;;;;6.48;100.00;97623.78;5060303;28;20196;-82
2022/09/29 03:35:17;;;;;;;23.63;6.50;;;;;;;6.42;100.00;97626.84;5035222;28;20217;-82
2022/09/29 03:37:46;;;;;;;34.40;6.17;;;;;;;6.22;100.00;97631.72;5029162;28;20198;-83
2022/09/29 03:40:15;;;;;;;15.63;4.80;;;;;;;6.16;100.00;97634.78;4988685;28;20301;-82
2022/09/29 03:42:46;;;;;;;30.50;5.47;;;;;;;6.02;100.00;97632.31;4985946;28;20245;-82
2022/09/29 03:45:14;;;;;;;17.40;4.33;;;;;;;5.97;100.00;97634.38;4982544;28;20257;-83
2022/09/29 03:47:43;;;;;;;8.03;4.20;;;;;;;6.10;100.00;97631.78;4988212;28;20202;-82
2022/09/29 03:50:13;;;;;;;3.80;3.40;;;;;;;6.20;100.00;97635.44;4988811;28;20226;-83
2022/09/29 03:52:42;;;;;;;4.67;3.70;;;;;;;6.10;100.00;97634.41;4997020;28;20201;-82
2022/09/29 03:55:11;;;;;;;9.17;4.40;;;;;;;6.02;100.00;97632.31;5028975;28;20193;-82
2022/09/29 03:57:40;;;;;;;6.37;4.17;;;;;;;5.99;100.00;97637.78;5025992;28;20209;-83
2022/09/29 04:00:11;;;;;;;8.23;4.23;;;;;;;6.01;100.00;97636.72;4998039;28;20230;-82
2022/09/29 04:02:43;;;;;;;4.23;3.70;;;;;;;6.04;100.00;97635.66;5001033;28;20188;-82
2022/09/29 04:05:13;;;;;;;6.60;4.07;;;;;;;6.05;100.00;97642.59;4997844;28;20238;-82
2022/09/29 04:07:42;;;;;;;7.60;4.20;;;;;;;5.98;100.00;97641.31;4996867;28;20218;-82
2022/09/29 04:10:10;;;;;;;16.37;5.10;;;;;;;5.91;100.00;97648.81;5000861;28;20280;-82
2022/09/29 04:12:40;;;;;;;6.83;4.60;;;;;;;6.05;100.00;97647.00;5004256;28;20252;-82
2022/09/29 04:15:09;;;;;;;5.83;3.97;;;;;;;6.10;100.00;97637.88;4997068;28;20256;-83
2022/09/29 04:17:38;;;;;;;6.00;4.60;;;;;;;6.24;100.00;97636.88;4997581;28;20335;-82
2022/09/29 04:20:10;;;;;;;8.33;5.33;;;;;;;6.11;100.00;97649.22;5002480;28;20741;-82
2022/09/29 04:22:40;;;;;;;7.13;5.60;;;;;;;6.15;100.00;97641.00;5003911;28;20222;-82
2022/09/29 04:25:09;;;;;;;11.47;6.33;;;;;;;6.31;100.00;97641.59;5006515;28;20190;-82
2022/09/29 04:27:38;;;;;;;8.40;5.73;;;;;;;6.17;100.00;97640.88;5006262;28;20701;-82
2022/09/29 04:30:08;;;;;;;7.83;5.47;;;;;;;6.22;100.00;97650.13;5009021;28;20214;-83
2022/09/29 04:32:43;;;;;;;9.60;6.10;;;;;;;6.10;100.00;97645.75;5007538;28;20650;-82
2022/09/29 04:35:14;;;;;;;9.10;5.53;;;;;;;6.18;100.00;97653.94;4935221;28;20236;-82
2022/09/29 04:37:44;;;;;;;19.20;5.93;;;;;;;6.21;100.00;97656.34;4933516;29;20197;-83
2022/09/29 04:40:13;;;;;;;18.83;6.60;;;;;;;6.18;100.00;97661.81;4940888;29;20221;-82
2022/09/29 04:42:42;;;;;;;9.40;5.93;;;;;;;6.21;100.00;97660.75;4940841;29;20205;-83
2022/09/29 04:45:11;;;;;;;7.43;5.00;;;;;;;6.23;100.00;97657.06;4989332;28;20198;-83
2022/09/29 04:47:40;;;;;;;7.73;5.60;;;;;;;6.24;100.00;97665.78;5015315;28;20218;-82
2022/09/29 04:50:09;;;;;;;9.77;6.23;;;;;;;6.29;100.00;97669.78;4978286;28;20191;-82
2022/09/29 04:52:38;;;;;;;7.70;6.23;;;;;;;6.27;100.00;97665.56;4993676;28;20201;-82
2022/09/29 04:55:11;;;;;;;7.87;6.10;;;;;;;6.34;100.00;97660.72;5043814;28;20220;-83
2022/09/29 04:57:42;;;;;;;6.10;5.20;;;;;;;6.30;100.00;97660.13;5044616;28;20212;-83
2022/09/29 05:00:12;;;;;;;7.13;5.10;;;;;;;6.35;100.00;97662.41;5043694;28;20232;-82
2022/09/29 05:02:41;;;;;;;6.13;5.37;;;;;;;6.53;100.00;97661.94;5048357;28;20189;-83
2022/09/29 05:05:16;;;;;;;6.77;5.70;;;;;;;6.48;100.00;97671.13;5051143;28;20290;-84
2022/09/29 05:07:48;;;;;;;6.73;5.00;;;;;;;6.55;100.00;97672.34;5063226;28;20297;-82
2022/09/29 05:10:20;;;;;;;8.93;5.90;;;;;;;6.50;100.00;97656.06;5017167;28;20220;-82
2022/09/29 05:12:49;;;;;;;6.20;5.23;;;;;;;6.59;100.00;97664.13;5014614;28;20260;-82
2022/09/29 05:15:19;;;;;;;6.93;4.97;;;;;;;6.68;100.00;97661.78;5039854;28;20205;-82
2022/09/29 05:17:52;;;;;;;6.57;5.57;;;;;;;6.74;100.00;97677.94;5048169;28;20207;-83
2022/09/29 05:20:22;;;;;;;8.13;5.17;;;;;;;6.63;100.00;97669.16;5044583;28;20271;-82
2022/09/29 05:22:51;;;;;;;7.20;5.63;;;;;;;6.72;100.00;97666.72;5048055;28;20196;-83
2022/09/29 05:25:21;;;;;;;6.77;5.50;;;;;;;6.65;100.00;97664.63;5046399;28;20185;-83
2022/09/29 05:27:50;;;;;;;7.83;5.37;;;;;;;6.73;100.00;97678.06;5052276;28;20231;-83
2022/09/29 05:30:18;;;;;;;7.27;5.47;;;;;;;6.83;100.00;97672.03;5032408;28;20231;-83
2022/09/29 05:32:47;;;;;;;7.97;5.50;;;;;;;6.78;100.00;97676.81;5003069;28;20196;-82
2022/09/29 05:35:16;;;;;;;8.03;5.30;;;;;;;6.79;100.00;97673.22;5004332;28;20203;-82
2022/09/29 05:37:45;;;;;;;7.03;5.07;;;;;;;6.76;100.00;97676.06;5004645;28;20203;-83
2022/09/29 05:40:14;;;;;;;7.07;4.90;;;;;;;6.72;100.00;97682.50;5041211;28;20286;-83
2022/09/29 05:42:44;;;;;;;5.40;4.70;;;;;;;6.74;100.00;97685.84;5000539;28;20202;-83
2022/09/29 05:45:12;;;;;;;6.67;5.23;;;;;;;6.84;100.00;97684.22;5002836;28;20258;-82
2022/09/29 05:47:45;;;;;;;5.80;4.90;;;;;;;6.87;100.00;97680.56;5005222;28;20207;-83
2022/09/29 05:50:14;;;;;;;7.43;5.17;;;;;;;6.92;100.00;97680.22;5006276;28;20707;-82
2022/09/29 05:52:43;;;;;;;6.03;5.27;;;;;;;6.94;100.00;97684.41;4997267;28;20234;-83
2022/09/29 05:55:11;;;;;;;6.00;5.23;;;;;;;6.90;100.00;97690.84;4998590;28;20369;-83
2022/09/29 05:57:40;;;;;;;6.83;5.23;;;;;;;7.07;100.00;97687.00;5002658;28;20191;-82
2022/09/29 06:00:13;;;;;;;15.13;8.70;;;;;;;7.05;100.00;97692.38;4997215;28;20242;-82
2022/09/29 06:02:44;;;;;;;9.60;6.20;;;;;;;7.10;100.00;97686.75;5009763;28;20186;-82
2022/09/29 06:05:15;;;;;;;6.70;5.30;;;;;;;7.07;100.00;97689.63;5007640;28;20229;-82
2022/09/29 06:07:43;;;;;;;6.03;4.70;;;;;;;7.18;100.00;97698.41;5010752;28;20202;-81
2022/09/29 06:10:16;;;;;;;9.03;5.50;;;;;;;7.23;100.00;97691.94;5008190;28;20689;-82
2022/09/29 06:12:45;;;;;;;7.30;5.97;;;;;;;7.29;100.00;97692.34;5008140;28;20195;-82
2022/09/29 06:15:15;;;;;;;7.43;5.63;;;;;;;7.33;100.00;97683.25;5010761;28;20268;-82
2022/09/29 06:17:44;;;;;;;7.03;5.50;;;;;;;7.39;100.00;97687.22;5005593;28;20285;-82
2022/09/29 06:20:14;;;;;;;5.87;5.27;;;;;;;7.41;100.00;97687.94;5018833;28;20235;-82
2022/09/29 06:22:43;;;;;;;7.73;5.77;;;;;;;7.62;100.00;97691.59;5070978;28;20725;-82
2022/09/29 06:25:11;;;;;;;5.77;5.23;;;;;;;7.73;100.00;97694.28;5073566;28;20226;-82
2022/09/29 06:27:39;;;;;;;6.10;4.97;;;;;;;7.84;100.00;97698.72;5066203;28;20274;-82
2022/09/29 06:30:11;;;;;;;7.23;6.00;;;;;;;7.86;100.00;97702.09;5072507;28;20192;-82
2022/09/29 06:32:44;;;;;;;5.87;5.10;;;;;;;7.96;100.00;97699.59;5049738;28;20200;-82
2022/09/29 06:38:02;;;;;;;7.33;5.50;;;;;;;8.07;100.00;97698.75;5049679;28;20653;-83
2022/09/29 06:40:31;;;;;;;9.90;6.50;;;;;;;8.07;100.00;97701.38;5048028;28;20707;-81
2022/09/29 06:43:00;;;;;;;6.87;6.17;;;;;;;8.13;100.00;97695.66;5014486;28;20280;-82
2022/09/29 06:45:28;;;;;;;8.90;6.73;;;;;;;8.20;100.00;97700.34;5044584;28;20648;-83
2022/09/29 06:48:02;;;;;;;15.33;9.23;;;;;;;8.27;100.00;97700.69;5048855;28;20730;-82
2022/09/29 06:50:30;;;;;;;8.53;7.27;;;;;;;8.30;100.00;97700.47;5042615;28;20201;-82
2022/09/29 06:52:59;;;;;;;13.40;10.20;;;;;;;8.11;100.00;97701.06;5042083;28;20197;-82
2022/09/29 06:55:34;;;;;;;12.97;10.07;;;;;;;8.17;100.00;97703.19;5045875;28;20232;-82
2022/09/29 06:58:08;;;;;;;15.13;11.23;;;;;;;8.32;100.00;97702.00;5021749;28;20761;-82
2022/09/29 07:00:38;;;;;;;19.53;12.97;;;;;;;8.13;100.00;97706.22;5025482;28;20237;-82
2022/09/29 07:03:09;;;;;;;21.37;13.60;;;;;;;8.27;100.00;97705.97;4986002;28;20202;-83
2022/09/29 07:05:38;;;;;;;25.70;14.73;;;;;;;8.17;100.00;97708.47;4941384;28;20215;-82
2022/09/29 07:08:06;;;;;;;26.33;14.40;;;;;;;8.36;100.00;97712.34;4987585;28;20254;-82
2022/09/29 07:10:36;;;;;;;23.40;14.63;;;;;;;8.27;100.00;97719.16;4986303;28;20262;-83
2022/09/29 07:13:05;;;;;;;24.30;13.83;;;;;;;8.34;100.00;97720.34;4983516;28;20253;-82
2022/09/29 07:15:33;;;;;;;26.20;14.10;;;;;;;8.46;100.00;97722.06;4989539;28;20635;-83
2022/09/29 07:18:02;;;;;;;21.40;14.00;;;;;;;8.37;100.00;97725.41;4986659;28;20234;-82
2022/09/29 07:20:33;;;;;;;26.53;14.10;;;;;;;8.28;100.00;97721.66;4962269;28;20211;-82
2022/09/29 07:23:04;;;;;;;25.57;14.43;;;;;;;8.46;100.00;97715.94;5023734;28;20193;-82
2022/09/29 07:25:33;;;;;;;34.87;15.00;;;;;;;8.00;100.00;97732.66;5072656;28;20248;-83
2022/09/29 07:28:18;;;;;;;29.30;14.57;;;;;;;7.96;100.00;97731.22;5076262;28;20210;-83
2022/09/29 07:30:47;;;;;;;28.13;15.27;;;;;;;8.11;100.00;97745.03;5071222;28;20254;-82
2022/09/29 07:33:19;;;;;;;28.40;13.57;;;;;;;8.37;100.00;97741.25;5073784;28;20222;-82
2022/09/29 07:36:04;;;;;;;36.27;13.13;;;;;;;8.27;100.00;97743.72;5071064;28;20230;-82
2022/09/29 07:38:35;;;;;;;53.33;15.00;;;;;;;8.21;100.00;97760.03;5075722;28;20200;-82
2022/09/29 07:41:08;;;;;;;49.83;16.13;;;;;;;7.99;100.00;97746.78;5048803;28;20217;-82
2022/09/29 07:43:40;;;;;;;51.03;17.07;;;;;;;7.78;100.00;97753.69;5052393;28;20273;-83
2022/09/29 07:46:09;;;;;;;40.13;18.00;;;;;;;7.70;100.00;97765.66;5044255;28;20213;-82
2022/09/29 07:48:39;;;;;;;30.47;17.23;;;;;;;8.07;100.00;97762.88;5040214;28;20208;-82
2022/09/29 07:51:12;;;;;;;31.13;18.77;;;;;;;8.28;100.00;97763.84;5050636;28;20331;-82
2022/09/29 07:53:43;;;;;;;35.43;19.37;;;;;;;8.32;100.00;97767.13;5048154;28;20193;-83
2022/09/29 07:56:14;;;;;;;34.77;18.37;;;;;;;8.65;100.00;97763.66;5051155;28;20220;-82
2022/09/29 07:58:42;;;;;;;32.03;19.13;;;;;;;8.77;100.00;97765.34;5053235;28;20281;-83
2022/09/29 08:01:14;;;;;;;33.73;19.20;;;;;;;8.93;100.00;97762.31;5067216;28;20259;-82
2022/09/29 08:03:46;;;;;;;38.57;19.87;;;;;;;8.99;100.00;97764.50;5069906;28;20203;-83
2022/09/29 08:06:16;;;;;;;38.50;19.27;;;;;;;8.87;100.00;97768.09;5076849;28;20277;-82
2022/09/29 08:08:44;;;;;;;34.67;19.90;;;;;;;8.92;100.00;97768.56;5066942;28;20245;-82
2022/09/29 08:11:29;;;;;;;30.10;18.00;;;;;;;8.96;100.00;97764.72;5003686;28;20207;-83
2022/09/29 08:14:01;;;;;;;35.57;19.73;;;;;;;9.01;100.00;97764.38;5008439;28;20245;-82
2022/09/29 08:16:31;;;;;;;28.80;17.63;;;;;;;9.06;100.00;97772.75;4999463;28;20233;-81
2022/09/29 08:19:01;;;;;;;30.10;18.03;;;;;;;8.81;100.00;97769.44;5002623;28;20206;-82
2022/09/29 08:21:35;;;;;;;29.80;16.40;;;;;;;8.69;100.00;97765.13;5008646;28;20222;-82
2022/09/29 08:24:04;;;;;;;23.13;15.43;;;;;;;8.94;100.00;97765.81;4970155;28;20200;-81
2022/09/29 08:26:36;;;;;;;29.43;17.17;;;;;;;8.94;100.00;97773.72;4893946;29;20190;-82
2022/09/29 08:29:12;;;;;;;31.43;17.57;;;;;;;9.08;100.00;97776.13;4895319;29;20202;-82
2022/09/29 08:31:46;;;;;;;30.63;18.03;;;;;;;9.21;100.00;97771.53;4888641;29;20252;-82
2022/09/29 08:34:16;;;;;;;29.43;17.93;;;;;;;9.05;100.00;97776.34;4893464;29;20276;-81
2022/09/29 08:36:49;;;;;;;26.50;15.97;;;;;;;9.25;100.00;97782.66;4891511;29;20214;-81
2022/09/29 08:39:22;;;;;;;30.10;16.47;;;;;;;9.07;100.00;97785.84;4935672;28;20255;-81
2022/09/29 08:42:01;;;;;;;25.90;15.47;;;;;;;9.20;100.00;97784.84;4949578;28;20248;-82
2022/09/29 08:44:36;;;;;;;22.53;14.07;;;;;;;9.21;100.00;97778.59;4980535;28;20240;-82
2022/09/29 08:47:18;;;;;;;21.97;14.33;;;;;;;9.25;100.00;97774.75;5025479;28;20196;-81
2022/09/29 08:49:53;;;;;;;22.67;14.13;;;;;;;9.29;100.00;97787.59;4991130;28;20248;-82
2022/09/29 08:52:26;;;;;;;24.73;14.50;;;;;;;9.34;100.00;97782.75;4997422;28;20246;-82
2022/09/29 08:55:02;;;;;;;27.87;14.53;;;;;;;9.15;100.00;97787.84;5024675;28;20193;-82
2022/09/29 08:57:54;;;;;;;18.17;13.03;;;;;;;9.46;100.00;97787.06;5031211;28;20193;-82
2022/09/29 09:00:30;;;;;;;19.33;13.33;;;;;;;9.45;100.00;97792.47;5020554;28;20224;-81
2022/09/29 09:03:18;;;;;;;22.40;15.33;;;;;;;9.55;100.00;97785.47;5024802;28;20241;-81
2022/09/29 09:05:58;;;;;;;38.90;23.90;;;;;;;9.78;100.00;97788.88;5029332;28;20201;-82
2022/09/29 09:08:41;;;;;;;21.20;14.43;;;;;;;9.96;100.00;97782.06;5029968;28;20197;-82
2022/09/29 09:11:27;;;;;;;19.27;13.23;;;;;;;9.89;100.00;97786.16;5022182;28;20201;-83
2022/09/29 09:14:10;;;;;;;17.40;12.30;;;;;;;9.93;100.00;97782.28;5058561;28;20196;-82
2022/09/29 09:16:49;;;;;;;17.17;11.83;;;;;;;10.04;100.00;97784.91;4991454;28;20207;-82
2022/09/29 09:19:39;;;;;;;21.03;13.80;;;;;;;10.04;100.00;97786.72;4934297;29;20204;-82
2022/09/29 09:22:21;;;;;;;19.17;13.37;;;;;;;10.08;100.00;97788.13;4928614;29;20221;-81
2022/09/29 09:24:59;;;;;;;18.57;13.47;;;;;;;10.20;100.00;97781.78;4929081;29;20193;-82
2022/09/29 09:27:35;;;;;;;15.73;12.20;;;;;;;10.28;100.00;97783.81;4895589;29;20202;-82
2022/09/29 09:30:08;;;;;;;17.67;12.87;;;;;;;10.02;100.00;97778.88;4893626;29;20194;-82
2022/09/29 09:32:44;;;;;;;17.37;13.13;;;;;;;10.18;100.00;97782.88;4893069;29;20210;-82
2022/09/29 09:35:25;;;;;;;19.17;13.23;;;;;;;10.32;100.00;97777.28;4858494;29;20355;-82
2022/09/29 09:38:03;;;;;;;17.80;13.37;;;;;;;10.51;100.00;97776.53;4884327;29;20202;-82
2022/09/29 09:40:40;;;;;;;18.70;14.40;;;;;;;10.43;100.00;97782.53;4901660;29;20197;-82
2022/09/29 09:43:15;;;;;;;15.70;12.50;;;;;;;10.55;100.00;97778.81;4931907;29;20228;-82
2022/09/29 09:45:51;;;;;;;21.37;17.37;;;;;;;9.94;100.00;97777.84;4928780;29;20564;-81
2022/09/29 09:48:25;;;;;;;21.00;15.17;;;;;;;10.10;100.00;97782.69;4958608;28;20200;-82
2022/09/29 09:51:21;;;;;;;15.57;13.07;;;;;;;10.40;100.00;97776.63;4968450;28;20226;-82
2022/09/29 09:53:53;;;;;;;17.20;13.47;;;;;;;10.40;100.00;97785.41;4999401;28;20202;-82
2022/09/29 09:56:42;;;;;;;17.23;13.67;;;;;;;10.60;100.00;97787.19;5010707;28;20257;-83
2022/09/29 09:59:26;;;;;;;15.23;12.70;;;;;;;10.74;100.00;97783.38;5051980;28;20223;-82
2022/09/29 10:01:58;;;;;;;16.50;13.00;;;;;;;10.71;100.00;97781.00;5070671;28;20304;-82
2022/09/29 10:04:28;;;;;;;19.33;15.80;;;;;;;10.86;100.00;97776.16;5072424;28;20223;-82
2022/09/29 10:06:57;;;;;;;16.90;12.83;;;;;;;10.97;100.00;97777.88;5072566;28;20253;-82
2022/09/29 10:09:30;;;;;;;17.30;12.10;;;;;;;11.05;100.00;97781.50;5037672;28;20284;-82
2022/09/29 10:12:02;;;;;;;13.27;10.93;;;;;;;11.15;100.00;97781.53;5000388;28;20533;-82
2022/09/29 10:14:38;;;;;;;16.47;14.60;;;;;;;11.45;100.00;97773.50;5002700;28;20823;-82
2022/09/29 10:17:12;;;;;;;14.40;11.70;;;;;;;11.68;100.00;97774.09;5002657;28;20222;-81
2022/09/29 10:20:04;;;;;;;15.77;10.70;;;;;;;11.53;100.00;97767.53;5001481;28;20191;-82
2022/09/29 10:22:33;;;;;;;14.50;11.17;;;;;;;11.50;100.00;97774.91;4997108;28;20223;-82
2022/09/29 10:25:18;;;;;;;12.60;9.87;;;;;;;11.63;100.00;97764.88;5003848;28;20266;-81
2022/09/29 10:27:53;;;;;;;16.90;11.97;;;;;;;11.74;100.00;97770.03;4998789;28;20191;-82
2022/09/29 10:30:27;;;;;;;13.00;10.50;;;;;;;12.07;100.00;97771.47;4984840;28;20294;-82
2022/09/29 10:32:59;;;;;;;13.17;9.93;;;;;;;11.85;100.00;97769.91;5056320;28;20219;-81
2022/09/29 10:35:33;;;;;;;13.27;10.00;;;;;;;12.33;100.00;97769.84;5049383;28;20652;-82
2022/09/29 10:38:06;;;;;;;15.77;10.20;;;;;;;12.36;100.00;97765.25;5053681;28;20225;-82
2022/09/29 10:40:53;;;;;;;12.30;10.13;;;;;;;12.44;100.00;97765.34;5047683;28;20188;-82
2022/09/29 10:43:25;;;;;;;11.87;9.33;;;;;;;12.62;100.00;97766.28;5047914;28;20223;-81
2022/09/29 10:45:57;;;;;;;13.30;9.00;;;;;;;12.68;100.00;97768.34;5047128;28;20197;-81
2022/09/29 10:48:28;;;;;;;17.77;13.47;;;;;;;12.13;100.00;97770.03;5050197;28;20200;-82
2022/09/29 10:51:24;;;;;;;56.87;29.07;;;;;;;12.25;100.00;97775.03;5012311;28;20187;-82
2022/09/29 10:53:52;;;;;;;12.30;9.60;;;;;;;12.38;100.00;97776.56;4981371;28;20199;-81
2022/09/29 10:56:26;;;;;;;10.60;8.60;;;;;;;12.93;100.00;97774.81;4981826;28;20261;-82
2022/09/29 10:59:00;;;;;;;9.63;8.37;;;;;;;13.16;100.00;97769.97;4935145;29;20189;-82
2022/09/29 11:01:44;;;;;;;11.87;8.80;;;;;;;13.57;100.00;97773.91;4873117;29;20223;-81
2022/09/29 11:04:19;;;;;;;10.20;8.67;;;;;;;14.04;100.00;97761.19;4876947;29;20223;-82
2022/09/29 11:06:49;;;;;;;11.00;8.07;;;;;;;13.37;100.00;97773.22;4874866;29;20209;-81
2022/09/29 11:09:31;;;;;;;15.67;12.40;;;;;;;13.86;100.00;97770.19;4911911;29;20253;-81
2022/09/29 11:12:00;;;;;;;9.33;7.80;;;;;;;14.08;100.00;97777.69;4913934;29;20607;-82
2022/09/29 11:14:42;;;;;;;10.87;8.17;;;;;;;14.40;100.00;97771.78;4913913;29;20231;-82
2022/09/29 11:17:23;;;;;;;11.63;8.33;;;;;;;13.64;100.00;97774.16;4922716;29;20232;-81
2022/09/29 11:20:00;;;;;;;11.50;8.60;;;;;;;14.08;100.00;97768.88;4931742;29;20196;-81
2022/09/29 11:22:52;;;;;;;8.93;7.67;;;;;;;14.33;100.00;97776.91;4891149;29;20273;-81
2022/09/29 11:25:52;;;;;;;13.67;10.20;;;;;;;14.34;100.00;97777.72;4882767;29;20201;-82
2022/09/29 11:28:51;;;;;;;9.87;7.60;;;;;;;14.15;100.00;97777.91;4996777;28;20197;-82
2022/09/29 11:31:49;;;;;;;10.53;8.90;;;;;;;14.09;100.00;97768.75;5007956;28;20222;-81
2022/09/29 11:34:38;;;;;;;11.97;8.50;;;;;;;14.38;100.00;97771.13;5012244;28;20194;-81
2022/09/29 11:37:18;;;;;;;10.63;7.83;;;;;;;14.58;100.00;97769.94;4962983;28;20696;-81
2022/09/29 11:39:58;;;;;;;10.00;7.87;;;;;;;14.72;100.00;97773.00;5013581;28;20298;-82
2022/09/29 11:42:44;;;;;;;10.60;7.93;;;;;;;14.82;100.00;97763.91;4952440;29;20224;-81
2022/09/29 11:45:17;;;;;;;11.40;8.30;;;;;;;14.24;100.00;97767.19;4952214;29;20204;-80
2022/09/29 11:48:29;;;;;;;9.63;7.73;;;;;;;14.77;100.00;97762.72;4954698;29;20259;-81
2022/09/29 11:51:06;;;;;;;9.57;6.93;;;;;;;15.13;100.00;97768.69;4948386;29;20208;-82
2022/09/29 11:53:50;;;;;;;10.63;7.20;;;;;;;15.38;100.00;97766.94;4951009;28;20207;-81
2022/09/29 11:56:30;;;;;;;8.87;6.50;;;;;;;15.73;100.00;97763.22;4951959;29;20193;-83
2022/09/29 11:59:20;;;;;;;7.77;6.40;;;;;;;15.83;100.00;97760.41;4950030;28;20204;-82